sensor_id;sensor_type;location;lat;lon;timestamp;pressure;altitude;pressure_sealevel;temperature;humidity
16595;BME280;8410;52.532;13.336;2023-09-19T00:00:21;100126.94;;;21.17;86.77
16595;BME280;8410;52.532;13.336;2023-09-19T00:02:52;100136.91;;;21.07;86.61
16595;BME280;8410;52.532;13.336;2023-09-19T00:05:20;100133.56;;;20.82;89.04
16595;BME280;8410;52.532;13.336;2023-09-19T00:07:51;100129.25;;;21.03;87.27
16595;BME280;8410;52.532;13.336;2023-09-19T00:10:20;100135.03;;;21.53;84.61
16595;BME280;8410;52.532;13.336;2023-09-19T00:12:51;100134.56;;;21.85;83.46
16595;BME280;8410;52.532;13.336;2023-09-19T00:15:19;100129.00;;;21.09;86.77
16595;BME280;8410;52.532;13.336;2023-09-19T00:17:46;100134.88;;;20.72;87.78
16595;BME280;8410;52.532;13.336;2023-09-19T00:20:14;100128.44;;;21.65;84.15
16595;BME280;8410;52.532;13.336;2023-09-19T00:22:44;100120.69;;;21.83;83.12
16595;BME280;8410;52.532;13.336;2023-09-19T00:25:12;100120.84;;;21.39;84.57
16595;BME280;8410;52.532;13.336;2023-09-19T00:27:41;100126.16;;;21.35;85.22
16595;BME280;8410;52.532;13.336;2023-09-19T00:30:13;100126.28;;;21.32;84.81
16595;BME280;8410;52.532;13.336;2023-09-19T00:32:46;100115.38;;;21.01;87.08
16595;BME280;8410;52.532;13.336;2023-09-19T00:35:15;100116.91;;;21.27;86.19
16595;BME280;8410;52.532;13.336;2023-09-19T00:37:43;100119.72;;;21.22;85.16
16595;BME280;8410;52.532;13.336;2023-09-19T00:40:11;100125.09;;;21.19;85.26
16595;BME280;8410;52.532;13.336;2023-09-19T00:42:41;100122.91;;;21.30;84.26
16595;BME280;8410;52.532;13.336;2023-09-19T00:45:09;100126.06;;;21.59;83.78
16595;BME280;8410;52.532;13.336;2023-09-19T00:47:39;100122.13;;;21.49;84.33
16595;BME280;8410;52.532;13.336;2023-09-19T00:50:09;100128.00;;;21.11;85.53
16595;BME280;8410;52.532;13.336;2023-09-19T00:52:38;100123.16;;;21.02;86.25
16595;BME280;8410;52.532;13.336;2023-09-19T00:55:07;100123.97;;;21.04;85.47
16595;BME280;8410;52.532;13.336;2023-09-19T00:57:36;100129.38;;;20.56;87.47
16595;BME280;8410;52.532;13.336;2023-09-19T01:00:06;100121.56;;;20.98;86.32
16595;BME280;8410;52.532;13.336;2023-09-19T01:02:37;100125.13;;;20.75;87.12
16595;BME280;8410;52.532;13.336;2023-09-19T01:05:06;100135.41;;;20.34;89.39
16595;BME280;8410;52.532;13.336;2023-09-19T01:07:34;100131.94;;;20.79;87.26
16595;BME280;8410;52.532;13.336;2023-09-19T01:10:03;100126.06;;;21.39;83.33
16595;BME280;8410;52.532;13.336;2023-09-19T01:12:37;100129.16;;;21.26;85.29
16595;BME280;8410;52.532;13.336;2023-09-19T01:15:15;100133.34;;;21.10;84.87
16595;BME280;8410;52.532;13.336;2023-09-19T01:17:52;100134.72;;;21.19;84.80
16595;BME280;8410;52.532;13.336;2023-09-19T01:20:33;100125.81;;;21.45;83.52
16595;BME280;8410;52.532;13.336;2023-09-19T01:23:11;100126.16;;;21.35;84.75
16595;BME280;8410;52.532;13.336;2023-09-19T01:26:04;100123.66;;;21.12;84.76
16595;BME280;8410;52.532;13.336;2023-09-19T01:28:44;100140.50;;;21.05;84.25
16595;BME280;8410;52.532;13.336;2023-09-19T01:31:16;100137.53;;;21.34;83.24
16595;BME280;8410;52.532;13.336;2023-09-19T01:33:56;100137.47;;;21.58;83.32
16595;BME280;8410;52.532;13.336;2023-09-19T01:36:29;100133.38;;;21.30;83.17
16595;BME280;8410;52.532;13.336;2023-09-19T01:38:58;100127.81;;;20.96;84.15
16595;BME280;8410;52.532;13.336;2023-09-19T01:41:54;100125.25;;;21.57;83.89
16595;BME280;8410;52.532;13.336;2023-09-19T01:44:36;100135.97;;;21.92;81.21
16595;BME280;8410;52.532;13.336;2023-09-19T01:47:15;100136.69;;;21.76;81.96
16595;BME280;8410;52.532;13.336;2023-09-19T01:49:52;100143.84;;;21.92;81.61
16595;BME280;8410;52.532;13.336;2023-09-19T01:52:28;100136.25;;;21.86;80.60
16595;BME280;8410;52.532;13.336;2023-09-19T01:55:02;100139.94;;;21.82;81.80
16595;BME280;8410;52.532;13.336;2023-09-19T01:57:36;100139.88;;;21.83;81.02
16595;BME280;8410;52.532;13.336;2023-09-19T02:00:10;100142.41;;;21.44;81.85
16595;BME280;8410;52.532;13.336;2023-09-19T02:02:44;100138.72;;;21.49;82.45
16595;BME280;8410;52.532;13.336;2023-09-19T02:05:12;100143.72;;;21.33;83.29
16595;BME280;8410;52.532;13.336;2023-09-19T02:07:39;100145.72;;;21.69;82.16
16595;BME280;8410;52.532;13.336;2023-09-19T02:10:08;100157.00;;;21.07;84.02
16595;BME280;8410;52.532;13.336;2023-09-19T02:12:38;100156.50;;;21.19;83.48
16595;BME280;8410;52.532;13.336;2023-09-19T02:15:06;100158.69;;;21.52;82.12
16595;BME280;8410;52.532;13.336;2023-09-19T02:17:34;100159.72;;;21.26;82.73
16595;BME280;8410;52.532;13.336;2023-09-19T02:20:04;100158.47;;;20.70;85.63
16595;BME280;8410;52.532;13.336;2023-09-19T02:22:37;100162.03;;;21.33;83.13
16595;BME280;8410;52.532;13.336;2023-09-19T02:25:06;100167.81;;;21.20;83.97
16595;BME280;8410;52.532;13.336;2023-09-19T02:27:34;100173.41;;;21.32;82.61
16595;BME280;8410;52.532;13.336;2023-09-19T02:30:03;100173.44;;;20.66;86.79
16595;BME280;8410;52.532;13.336;2023-09-19T02:32:30;100173.06;;;20.98;85.31
16595;BME280;8410;52.532;13.336;2023-09-19T02:35:05;100171.66;;;20.89;84.23
16595;BME280;8410;52.532;13.336;2023-09-19T02:37:32;100174.84;;;20.75;85.74
16595;BME280;8410;52.532;13.336;2023-09-19T02:40:01;100176.59;;;20.97;85.29
16595;BME280;8410;52.532;13.336;2023-09-19T02:42:29;100188.25;;;20.42;85.94
16595;BME280;8410;52.532;13.336;2023-09-19T02:44:56;100182.97;;;20.89;85.87
16595;BME280;8410;52.532;13.336;2023-09-19T02:47:24;100182.69;;;20.97;85.57
16595;BME280;8410;52.532;13.336;2023-09-19T02:49:53;100189.09;;;20.43;87.12
16595;BME280;8410;52.532;13.336;2023-09-19T02:52:22;100194.00;;;20.76;86.47
16595;BME280;8410;52.532;13.336;2023-09-19T02:54:51;100189.25;;;20.85;85.84
16595;BME280;8410;52.532;13.336;2023-09-19T02:57:18;100200.00;;;20.31;87.66
16595;BME280;8410;52.532;13.336;2023-09-19T02:59:46;100203.38;;;21.03;85.06
16595;BME280;8410;52.532;13.336;2023-09-19T03:02:13;100202.22;;;21.10;85.05
16595;BME280;8410;52.532;13.336;2023-09-19T03:04:42;100209.56;;;21.01;84.80
16595;BME280;8410;52.532;13.336;2023-09-19T03:07:12;100210.78;;;20.70;84.65
16595;BME280;8410;52.532;13.336;2023-09-19T03:09:41;100207.78;;;20.32;88.04
16595;BME280;8410;52.532;13.336;2023-09-19T03:12:08;100214.59;;;20.36;87.40
16595;BME280;8410;52.532;13.336;2023-09-19T03:14:36;100209.34;;;20.13;86.71
16595;BME280;8410;52.532;13.336;2023-09-19T03:17:03;100214.63;;;20.60;86.19
16595;BME280;8410;52.532;13.336;2023-09-19T03:19:31;100212.00;;;20.83;83.36
16595;BME280;8410;52.532;13.336;2023-09-19T03:22:00;100218.66;;;20.68;82.85
16595;BME280;8410;52.532;13.336;2023-09-19T03:24:29;100218.22;;;21.03;82.22
16595;BME280;8410;52.532;13.336;2023-09-19T03:26:59;100228.81;;;20.29;83.03
16595;BME280;8410;52.532;13.336;2023-09-19T03:29:26;100232.13;;;20.34;83.98
16595;BME280;8410;52.532;13.336;2023-09-19T03:31:54;100233.69;;;21.09;80.45
16595;BME280;8410;52.532;13.336;2023-09-19T03:34:21;100229.47;;;20.59;81.98
16595;BME280;8410;52.532;13.336;2023-09-19T03:36:49;100236.47;;;20.82;80.63
16595;BME280;8410;52.532;13.336;2023-09-19T03:39:16;100233.38;;;20.71;80.43
16595;BME280;8410;52.532;13.336;2023-09-19T03:41:44;100237.81;;;20.45;80.22
16595;BME280;8410;52.532;13.336;2023-09-19T03:44:13;100239.03;;;20.84;79.98
16595;BME280;8410;52.532;13.336;2023-09-19T03:46:41;100248.75;;;20.57;79.44
16595;BME280;8410;52.532;13.336;2023-09-19T03:49:09;100249.38;;;20.87;78.80
16595;BME280;8410;52.532;13.336;2023-09-19T03:51:36;100246.47;;;20.95;78.12
16595;BME280;8410;52.532;13.336;2023-09-19T03:54:06;100249.31;;;20.88;78.41
16595;BME280;8410;52.532;13.336;2023-09-19T03:56:34;100252.72;;;20.42;78.72
16595;BME280;8410;52.532;13.336;2023-09-19T03:59:01;100251.50;;;20.77;78.19
16595;BME280;8410;52.532;13.336;2023-09-19T04:01:31;100246.22;;;21.01;77.00
16595;BME280;8410;52.532;13.336;2023-09-19T04:03:59;100255.16;;;20.95;77.88
16595;BME280;8410;52.532;13.336;2023-09-19T04:06:34;100257.63;;;20.76;77.16
16595;BME280;8410;52.532;13.336;2023-09-19T04:09:02;100263.88;;;20.72;77.96
16595;BME280;8410;52.532;13.336;2023-09-19T04:11:30;100258.84;;;20.89;76.89
16595;BME280;8410;52.532;13.336;2023-09-19T04:13:59;100257.56;;;20.54;77.83
16595;BME280;8410;52.532;13.336;2023-09-19T04:16:31;100259.44;;;20.74;77.11
16595;BME280;8410;52.532;13.336;2023-09-19T04:18:58;100260.34;;;20.97;76.42
16595;BME280;8410;52.532;13.336;2023-09-19T04:21:26;100262.63;;;20.82;75.50
16595;BME280;8410;52.532;13.336;2023-09-19T04:23:54;100269.84;;;20.99;75.62
16595;BME280;8410;52.532;13.336;2023-09-19T04:26:22;100265.19;;;20.84;74.59
16595;BME280;8410;52.532;13.336;2023-09-19T04:28:49;100262.53;;;20.85;75.18
16595;BME280;8410;52.532;13.336;2023-09-19T04:31:17;100269.00;;;20.99;74.68
16595;BME280;8410;52.532;13.336;2023-09-19T04:33:48;100278.22;;;19.85;77.78
16595;BME280;8410;52.532;13.336;2023-09-19T04:36:15;100282.50;;;20.13;78.12
16595;BME280;8410;52.532;13.336;2023-09-19T04:39:01;100281.03;;;20.79;75.47
16595;BME280;8410;52.532;13.336;2023-09-19T04:41:31;100283.03;;;20.73;75.77
16595;BME280;8410;52.532;13.336;2023-09-19T04:43:58;100292.41;;;20.55;75.36
16595;BME280;8410;52.532;13.336;2023-09-19T04:46:26;100296.75;;;20.79;74.66
16595;BME280;8410;52.532;13.336;2023-09-19T04:48:55;100293.75;;;20.66;74.45
16595;BME280;8410;52.532;13.336;2023-09-19T04:51:23;100296.06;;;20.49;75.60
16595;BME280;8410;52.532;13.336;2023-09-19T04:53:50;100297.81;;;20.74;75.04
16595;BME280;8410;52.532;13.336;2023-09-19T04:56:18;100301.88;;;20.59;74.52
16595;BME280;8410;52.532;13.336;2023-09-19T04:58:47;100305.47;;;20.55;74.76
16595;BME280;8410;52.532;13.336;2023-09-19T05:01:14;100307.53;;;20.20;75.62
16595;BME280;8410;52.532;13.336;2023-09-19T05:03:42;100312.75;;;20.72;74.80
16595;BME280;8410;52.532;13.336;2023-09-19T05:06:13;100309.25;;;20.71;74.36
16595;BME280;8410;52.532;13.336;2023-09-19T05:08:41;100313.25;;;20.81;74.27
16595;BME280;8410;52.532;13.336;2023-09-19T05:11:09;100319.59;;;20.74;73.88
16595;BME280;8410;52.532;13.336;2023-09-19T05:13:36;100319.38;;;20.57;75.15
16595;BME280;8410;52.532;13.336;2023-09-19T05:16:04;100319.56;;;20.51;74.43
16595;BME280;8410;52.532;13.336;2023-09-19T05:18:32;100326.13;;;20.62;75.07
16595;BME280;8410;52.532;13.336;2023-09-19T05:21:01;100333.59;;;20.73;73.71
16595;BME280;8410;52.532;13.336;2023-09-19T05:23:30;100333.91;;;20.39;75.81
16595;BME280;8410;52.532;13.336;2023-09-19T05:25:59;100343.13;;;20.24;74.85
16595;BME280;8410;52.532;13.336;2023-09-19T05:28:26;100346.44;;;19.76;77.53
16595;BME280;8410;52.532;13.336;2023-09-19T05:30:54;100353.91;;;19.58;77.88
16595;BME280;8410;52.532;13.336;2023-09-19T05:33:22;100348.41;;;19.96;77.13
16595;BME280;8410;52.532;13.336;2023-09-19T05:35:49;100343.34;;;20.43;75.07
16595;BME280;8410;52.532;13.336;2023-09-19T05:38:16;100348.78;;;20.37;75.64
16595;BME280;8410;52.532;13.336;2023-09-19T05:40:47;100350.28;;;20.19;75.68
16595;BME280;8410;52.532;13.336;2023-09-19T05:43:15;100358.38;;;20.36;75.28
16595;BME280;8410;52.532;13.336;2023-09-19T05:45:43;100359.75;;;20.73;74.12
16595;BME280;8410;52.532;13.336;2023-09-19T05:48:13;100371.91;;;19.96;75.16
16595;BME280;8410;52.532;13.336;2023-09-19T05:50:42;100372.97;;;20.17;76.04
16595;BME280;8410;52.532;13.336;2023-09-19T05:53:13;100378.88;;;20.23;75.31
16595;BME280;8410;52.532;13.336;2023-09-19T05:55:41;100368.53;;;20.45;74.83
16595;BME280;8410;52.532;13.336;2023-09-19T05:58:10;100377.84;;;20.54;74.32
16595;BME280;8410;52.532;13.336;2023-09-19T06:00:41;100381.47;;;20.75;73.77
16595;BME280;8410;52.532;13.336;2023-09-19T06:03:10;100393.25;;;20.87;73.81
16595;BME280;8410;52.532;13.336;2023-09-19T06:05:40;100393.66;;;20.76;73.90
16595;BME280;8410;52.532;13.336;2023-09-19T06:08:08;100399.47;;;20.84;73.88
16595;BME280;8410;52.532;13.336;2023-09-19T06:10:35;100410.97;;;20.80;73.82
16595;BME280;8410;52.532;13.336;2023-09-19T06:13:03;100402.63;;;20.69;74.12
16595;BME280;8410;52.532;13.336;2023-09-19T06:15:34;100404.50;;;20.90;72.51
16595;BME280;8410;52.532;13.336;2023-09-19T06:18:02;100406.84;;;20.73;74.08
16595;BME280;8410;52.532;13.336;2023-09-19T06:20:32;100412.28;;;20.14;74.09
16595;BME280;8410;52.532;13.336;2023-09-19T06:23:00;100406.38;;;20.62;74.25
16595;BME280;8410;52.532;13.336;2023-09-19T06:25:28;100419.09;;;20.44;74.92
16595;BME280;8410;52.532;13.336;2023-09-19T06:27:56;100412.22;;;20.68;74.03
16595;BME280;8410;52.532;13.336;2023-09-19T06:30:24;100417.41;;;20.17;75.72
16595;BME280;8410;52.532;13.336;2023-09-19T06:32:57;100417.66;;;20.62;73.48
16595;BME280;8410;52.532;13.336;2023-09-19T06:35:24;100421.16;;;21.11;72.86
16595;BME280;8410;52.532;13.336;2023-09-19T06:37:53;100418.63;;;21.10;72.25
16595;BME280;8410;52.532;13.336;2023-09-19T06:40:21;100418.88;;;21.51;70.79
16595;BME280;8410;52.532;13.336;2023-09-19T06:42:51;100435.91;;;21.14;71.33
16595;BME280;8410;52.532;13.336;2023-09-19T06:45:19;100426.50;;;21.33;71.13
16595;BME280;8410;52.532;13.336;2023-09-19T06:47:50;100433.91;;;20.97;72.34
16595;BME280;8410;52.532;13.336;2023-09-19T06:50:21;100428.31;;;21.31;71.32
16595;BME280;8410;52.532;13.336;2023-09-19T06:52:50;100430.75;;;21.36;71.44
16595;BME280;8410;52.532;13.336;2023-09-19T06:55:18;100437.63;;;21.62;70.19
16595;BME280;8410;52.532;13.336;2023-09-19T06:57:47;100436.63;;;21.43;75.76
16595;BME280;8410;52.532;13.336;2023-09-19T07:00:15;100434.31;;;21.80;76.93
16595;BME280;8410;52.532;13.336;2023-09-19T07:02:45;100435.19;;;22.03;73.41
16595;BME280;8410;52.532;13.336;2023-09-19T07:05:13;100432.41;;;22.50;73.88
16595;BME280;8410;52.532;13.336;2023-09-19T07:07:42;100430.47;;;22.76;72.05
16595;BME280;8410;52.532;13.336;2023-09-19T07:10:11;100443.56;;;22.35;69.56
16595;BME280;8410;52.532;13.336;2023-09-19T07:12:39;100450.13;;;22.01;70.38
16595;BME280;8410;52.532;13.336;2023-09-19T07:15:08;100455.13;;;22.07;75.13
16595;BME280;8410;52.532;13.336;2023-09-19T07:17:36;100457.19;;;21.53;70.29
16595;BME280;8410;52.532;13.336;2023-09-19T07:20:05;100473.94;;;21.24;75.65
16595;BME280;8410;52.532;13.336;2023-09-19T07:22:34;100456.44;;;21.73;73.29
16595;BME280;8410;52.532;13.336;2023-09-19T07:25:05;100471.22;;;21.98;71.04
16595;BME280;8410;52.532;13.336;2023-09-19T07:27:32;100475.88;;;21.44;74.70
16595;BME280;8410;52.532;13.336;2023-09-19T07:30:00;100474.38;;;21.84;72.73
16595;BME280;8410;52.532;13.336;2023-09-19T07:32:27;100476.22;;;22.04;70.56
16595;BME280;8410;52.532;13.336;2023-09-19T07:34:55;100482.25;;;21.35;74.31
16595;BME280;8410;52.532;13.336;2023-09-19T07:37:23;100482.53;;;21.53;73.73
16595;BME280;8410;52.532;13.336;2023-09-19T07:39:52;100484.88;;;21.35;71.88
16595;BME280;8410;52.532;13.336;2023-09-19T07:42:21;100478.75;;;21.36;71.00
16595;BME280;8410;52.532;13.336;2023-09-19T07:44:48;100481.59;;;21.54;74.28
16595;BME280;8410;52.532;13.336;2023-09-19T07:47:17;100490.72;;;21.44;69.60
16595;BME280;8410;52.532;13.336;2023-09-19T07:49:46;100491.75;;;21.40;67.83
16595;BME280;8410;52.532;13.336;2023-09-19T07:52:14;100496.75;;;21.46;70.58
16595;BME280;8410;52.532;13.336;2023-09-19T07:54:42;100507.56;;;21.84;71.26
16595;BME280;8410;52.532;13.336;2023-09-19T07:57:10;100513.97;;;21.53;69.21
16595;BME280;8410;52.532;13.336;2023-09-19T07:59:39;100513.78;;;21.32;70.56
16595;BME280;8410;52.532;13.336;2023-09-19T08:02:08;100513.06;;;21.29;67.47
16595;BME280;8410;52.532;13.336;2023-09-19T08:04:42;100519.03;;;21.07;66.10
16595;BME280;8410;52.532;13.336;2023-09-19T08:07:10;100517.38;;;21.55;65.10
16595;BME280;8410;52.532;13.336;2023-09-19T08:09:37;100512.53;;;21.91;64.15
16595;BME280;8410;52.532;13.336;2023-09-19T08:12:05;100503.38;;;21.56;65.00
16595;BME280;8410;52.532;13.336;2023-09-19T08:14:34;100495.75;;;21.50;65.47
16595;BME280;8410;52.532;13.336;2023-09-19T08:17:03;100497.97;;;21.35;64.67
16595;BME280;8410;52.532;13.336;2023-09-19T08:19:32;100505.47;;;22.15;62.83
16595;BME280;8410;52.532;13.336;2023-09-19T08:22:00;100509.75;;;22.18;62.53
16595;BME280;8410;52.532;13.336;2023-09-19T08:24:29;100511.78;;;21.88;63.54
16595;BME280;8410;52.532;13.336;2023-09-19T08:26:57;100515.25;;;21.16;65.19
16595;BME280;8410;52.532;13.336;2023-09-19T08:29:25;100520.00;;;21.55;64.31
16595;BME280;8410;52.532;13.336;2023-09-19T08:31:54;100520.91;;;21.77;63.92
16595;BME280;8410;52.532;13.336;2023-09-19T08:34:24;100515.00;;;21.94;63.88
16595;BME280;8410;52.532;13.336;2023-09-19T08:36:52;100525.09;;;22.05;63.73
16595;BME280;8410;52.532;13.336;2023-09-19T08:39:23;100522.78;;;21.97;63.53
16595;BME280;8410;52.532;13.336;2023-09-19T08:41:57;100528.56;;;21.10;64.82
16595;BME280;8410;52.532;13.336;2023-09-19T08:44:24;100525.13;;;21.82;63.80
16595;BME280;8410;52.532;13.336;2023-09-19T08:46:55;100533.88;;;22.04;62.98
16595;BME280;8410;52.532;13.336;2023-09-19T08:49:33;100539.81;;;21.86;62.67
16595;BME280;8410;52.532;13.336;2023-09-19T08:52:09;100536.34;;;21.36;64.25
16595;BME280;8410;52.532;13.336;2023-09-19T08:54:38;100528.63;;;22.04;62.31
16595;BME280;8410;52.532;13.336;2023-09-19T08:57:07;100539.34;;;21.51;62.93
16595;BME280;8410;52.532;13.336;2023-09-19T08:59:37;100533.84;;;21.82;62.53
16595;BME280;8410;52.532;13.336;2023-09-19T09:02:10;100544.00;;;21.43;63.22
16595;BME280;8410;52.532;13.336;2023-09-19T09:04:41;100539.03;;;21.60;63.13
16595;BME280;8410;52.532;13.336;2023-09-19T09:07:11;100536.84;;;22.18;61.81
16595;BME280;8410;52.532;13.336;2023-09-19T09:09:39;100536.50;;;22.04;61.75
16595;BME280;8410;52.532;13.336;2023-09-19T09:12:11;100541.56;;;22.09;62.64
16595;BME280;8410;52.532;13.336;2023-09-19T09:14:39;100548.69;;;22.29;62.23
16595;BME280;8410;52.532;13.336;2023-09-19T09:17:07;100548.28;;;22.16;61.88
16595;BME280;8410;52.532;13.336;2023-09-19T09:19:35;100550.16;;;22.36;61.07
16595;BME280;8410;52.532;13.336;2023-09-19T09:22:09;100557.34;;;21.84;61.76
16595;BME280;8410;52.532;13.336;2023-09-19T09:24:37;100552.63;;;22.40;60.95
16595;BME280;8410;52.532;13.336;2023-09-19T09:27:20;100552.72;;;22.59;59.31
16595;BME280;8410;52.532;13.336;2023-09-19T09:29:51;100551.44;;;22.26;60.49
16595;BME280;8410;52.532;13.336;2023-09-19T09:32:23;100552.56;;;22.84;58.81
16595;BME280;8410;52.532;13.336;2023-09-19T09:34:52;100552.22;;;22.50;59.40
16595;BME280;8410;52.532;13.336;2023-09-19T09:37:25;100548.25;;;21.47;61.27
16595;BME280;8410;52.532;13.336;2023-09-19T09:39:54;100553.88;;;22.52;59.65
16595;BME280;8410;52.532;13.336;2023-09-19T09:42:29;100551.25;;;22.30;59.35
16595;BME280;8410;52.532;13.336;2023-09-19T09:45:17;100556.16;;;22.61;58.85
16595;BME280;8410;52.532;13.336;2023-09-19T09:47:46;100566.00;;;22.77;57.98
16595;BME280;8410;52.532;13.336;2023-09-19T09:50:25;100557.22;;;22.78;58.04
16595;BME280;8410;52.532;13.336;2023-09-19T09:52:57;100555.81;;;22.91;57.27
16595;BME280;8410;52.532;13.336;2023-09-19T09:55:57;100555.38;;;22.14;57.79
16595;BME280;8410;52.532;13.336;2023-09-19T09:58:25;100558.97;;;22.35;57.42
16595;BME280;8410;52.532;13.336;2023-09-19T10:00:56;100559.69;;;22.15;57.11
16595;BME280;8410;52.532;13.336;2023-09-19T10:03:32;100560.59;;;22.14;57.23
16595;BME280;8410;52.532;13.336;2023-09-19T10:06:00;100566.81;;;22.35;56.75
16595;BME280;8410;52.532;13.336;2023-09-19T10:08:36;100565.34;;;22.50;56.53
16595;BME280;8410;52.532;13.336;2023-09-19T10:11:15;100568.81;;;22.50;56.54
16595;BME280;8410;52.532;13.336;2023-09-19T10:13:43;100566.25;;;22.71;55.34
16595;BME280;8410;52.532;13.336;2023-09-19T10:16:15;100571.03;;;22.39;56.26
16595;BME280;8410;52.532;13.336;2023-09-19T10:18:47;100550.97;;;23.23;54.49
16595;BME280;8410;52.532;13.336;2023-09-19T10:21:18;100557.47;;;23.14;54.08
16595;BME280;8410;52.532;13.336;2023-09-19T10:23:50;100559.41;;;22.66;53.80
16595;BME280;8410;52.532;13.336;2023-09-19T10:26:23;100565.53;;;22.45;55.05
16595;BME280;8410;52.532;13.336;2023-09-19T10:28:52;100565.63;;;22.64;54.93
16595;BME280;8410;52.532;13.336;2023-09-19T10:31:21;100572.22;;;22.74;54.48
16595;BME280;8410;52.532;13.336;2023-09-19T10:33:53;100556.63;;;22.49;54.63
16595;BME280;8410;52.532;13.336;2023-09-19T10:36:24;100560.78;;;22.33;55.21
16595;BME280;8410;52.532;13.336;2023-09-19T10:38:55;100556.75;;;22.46;53.99
16595;BME280;8410;52.532;13.336;2023-09-19T10:41:24;100558.41;;;22.49;54.59
16595;BME280;8410;52.532;13.336;2023-09-19T10:43:53;100550.47;;;22.93;54.14
16595;BME280;8410;52.532;13.336;2023-09-19T10:46:21;100567.94;;;22.72;54.09
16595;BME280;8410;52.532;13.336;2023-09-19T10:48:50;100552.09;;;22.53;52.67
16595;BME280;8410;52.532;13.336;2023-09-19T10:51:23;100562.47;;;22.78;51.51
16595;BME280;8410;52.532;13.336;2023-09-19T10:54:01;100566.03;;;21.86;53.28
16595;BME280;8410;52.532;13.336;2023-09-19T10:56:33;100572.84;;;22.37;52.53
16595;BME280;8410;52.532;13.336;2023-09-19T10:59:06;100572.44;;;22.70;50.65
16595;BME280;8410;52.532;13.336;2023-09-19T11:01:44;100565.56;;;21.98;52.17
16595;BME280;8410;52.532;13.336;2023-09-19T11:04:21;100559.19;;;22.29;52.67
16595;BME280;8410;52.532;13.336;2023-09-19T11:07:00;100563.25;;;22.80;51.79
16595;BME280;8410;52.532;13.336;2023-09-19T11:09:50;100566.00;;;22.77;51.91
16595;BME280;8410;52.532;13.336;2023-09-19T11:12:50;100563.50;;;23.16;50.73
16595;BME280;8410;52.532;13.336;2023-09-19T11:18:52;100569.41;;;22.79;51.76
16595;BME280;8410;52.532;13.336;2023-09-19T11:24:31;100570.66;;;23.33;50.66
16595;BME280;8410;52.532;13.336;2023-09-19T11:27:13;100571.78;;;23.27;50.12
16595;BME280;8410;52.532;13.336;2023-09-19T11:29:44;100578.16;;;23.22;50.58
16595;BME280;8410;52.532;13.336;2023-09-19T11:32:11;100584.44;;;22.53;52.10
16595;BME280;8410;52.532;13.336;2023-09-19T11:34:47;100577.44;;;23.18;50.91
16595;BME280;8410;52.532;13.336;2023-09-19T11:40:29;100584.63;;;22.71;50.74
16595;BME280;8410;52.532;13.336;2023-09-19T11:42:58;100580.06;;;22.76;51.62
16595;BME280;8410;52.532;13.336;2023-09-19T11:46:04;100577.16;;;23.04;49.26
16595;BME280;8410;52.532;13.336;2023-09-19T11:48:32;100558.72;;;23.26;48.45
16595;BME280;8410;52.532;13.336;2023-09-19T11:51:01;100571.53;;;23.33;48.55
16595;BME280;8410;52.532;13.336;2023-09-19T11:53:34;100581.97;;;22.93;50.02
16595;BME280;8410;52.532;13.336;2023-09-19T11:56:06;100576.88;;;22.67;51.05
16595;BME280;8410;52.532;13.336;2023-09-19T11:58:40;100578.53;;;22.02;51.76
16595;BME280;8410;52.532;13.336;2023-09-19T12:01:12;100577.69;;;22.90;50.29
16595;BME280;8410;52.532;13.336;2023-09-19T12:03:42;100570.53;;;23.16;49.45
16595;BME280;8410;52.532;13.336;2023-09-19T12:06:13;100571.97;;;23.02;49.63
16595;BME280;8410;52.532;13.336;2023-09-19T12:08:41;100572.31;;;23.15;50.11
16595;BME280;8410;52.532;13.336;2023-09-19T12:11:13;100577.84;;;22.87;49.93
16595;BME280;8410;52.532;13.336;2023-09-19T12:13:44;100590.16;;;22.19;51.25
16595;BME280;8410;52.532;13.336;2023-09-19T12:16:14;100581.88;;;22.74;50.27
16595;BME280;8410;52.532;13.336;2023-09-19T12:18:43;100582.38;;;22.83;49.17
16595;BME280;8410;52.532;13.336;2023-09-19T12:21:26;100581.25;;;22.45;53.68
16595;BME280;8410;52.532;13.336;2023-09-19T12:24:09;100578.47;;;23.14;56.74
16595;BME280;8410;52.532;13.336;2023-09-19T12:26:41;100580.66;;;23.45;64.52
16595;BME280;8410;52.532;13.336;2023-09-19T12:29:15;100575.78;;;23.96;66.10
16595;BME280;8410;52.532;13.336;2023-09-19T12:31:48;100570.16;;;23.04;53.63
16595;BME280;8410;52.532;13.336;2023-09-19T12:34:19;100566.25;;;23.93;52.32
16595;BME280;8410;52.532;13.336;2023-09-19T12:36:47;100565.63;;;23.68;51.62
16595;BME280;8410;52.532;13.336;2023-09-19T12:39:24;100566.66;;;23.84;54.32
16595;BME280;8410;52.532;13.336;2023-09-19T12:41:52;100573.56;;;23.47;51.10
16595;BME280;8410;52.532;13.336;2023-09-19T12:44:22;100578.72;;;22.65;52.96
16595;BME280;8410;52.532;13.336;2023-09-19T12:46:51;100574.53;;;22.82;54.42
16595;BME280;8410;52.532;13.336;2023-09-19T12:49:20;100566.66;;;23.24;55.93
16595;BME280;8410;52.532;13.336;2023-09-19T12:51:49;100564.47;;;23.54;52.48
16595;BME280;8410;52.532;13.336;2023-09-19T12:54:22;100559.69;;;23.44;50.21
16595;BME280;8410;52.532;13.336;2023-09-19T12:56:51;100577.50;;;22.96;51.06
16595;BME280;8410;52.532;13.336;2023-09-19T12:59:29;100574.88;;;23.58;54.91
16595;BME280;8410;52.532;13.336;2023-09-19T13:02:03;100565.44;;;23.52;55.23
16595;BME280;8410;52.532;13.336;2023-09-19T13:04:32;100573.69;;;22.81;50.77
16595;BME280;8410;52.532;13.336;2023-09-19T13:07:01;100569.28;;;23.45;57.75
16595;BME280;8410;52.532;13.336;2023-09-19T13:09:28;100577.38;;;23.40;49.87
16595;BME280;8410;52.532;13.336;2023-09-19T13:12:01;100581.44;;;23.27;55.00
16595;BME280;8410;52.532;13.336;2023-09-19T13:14:31;100571.03;;;23.65;55.04
16595;BME280;8410;52.532;13.336;2023-09-19T13:17:04;100579.06;;;23.82;53.76